Time;durP1;ratioP1;P1;durP2;ratioP2;P2;SDS_P1;SDS_P2;PMS_P1;PMS_P2;Temp;Humidity;BMP_temperature;BMP_pressure;BME280_temperature;BME280_humidity;BME280_pressure;Samples;Min_cycle;Max_cycle;Signal;HPM_P1;HPM_P2
2022/03/03 00:00:57;;;;;;;25.80;20.70;;;4.50;65.60;;;;;;5118706;27;20567;-45
2022/03/03 00:03:23;;;;;;;28.90;22.10;;;4.40;65.70;;;;;;5118692;28;20219;-45
2022/03/03 00:05:49;;;;;;;23.83;21.17;;;4.20;65.60;;;;;;5118710;28;20172;-45
2022/03/03 00:08:14;;;;;;;26.70;20.70;;;4.10;65.70;;;;;;5118093;28;20188;-45
2022/03/03 00:10:40;;;;;;;26.10;19.70;;;4.00;66.00;;;;;;5117850;28;20383;-45
2022/03/03 00:13:12;;;;;;;27.67;22.23;;;3.80;66.20;;;;;;5118159;28;20184;-45
2022/03/03 00:15:38;;;;;;;25.27;20.03;;;3.70;66.00;;;;;;5118210;28;20176;-45
2022/03/03 00:18:04;;;;;;;25.17;20.57;;;3.60;66.10;;;;;;5117518;28;20835;-45
2022/03/03 00:20:30;;;;;;;24.47;20.87;;;3.50;66.30;;;;;;5117723;27;20187;-45
2022/03/03 00:22:56;;;;;;;25.40;20.80;;;3.40;66.50;;;;;;5117999;28;20176;-45
2022/03/03 00:25:23;;;;;;;23.00;19.87;;;3.30;66.80;;;;;;5118144;28;20421;-45
2022/03/03 00:27:49;;;;;;;25.40;20.37;;;3.30;66.90;;;;;;5118609;28;20450;-45
2022/03/03 00:30:14;;;;;;;25.10;19.30;;;3.30;67.10;;;;;;5117447;28;20509;-46
2022/03/03 00:32:40;;;;;;;24.43;20.30;;;3.20;67.20;;;;;;5118394;28;20220;-46
2022/03/03 00:35:08;;;;;;;22.73;18.93;;;3.10;67.30;;;;;;5118114;28;20250;-45
2022/03/03 00:37:34;;;;;;;21.23;18.20;;;3.10;67.40;;;;;;5118133;28;20562;-45
2022/03/03 00:40:00;;;;;;;23.67;18.10;;;3.00;67.50;;;;;;5117387;28;20524;-45
2022/03/03 00:42:25;;;;;;;25.57;19.10;;;2.90;67.70;;;;;;5118219;28;20418;-45
2022/03/03 00:44:51;;;;;;;23.30;19.20;;;2.90;67.70;;;;;;5118258;28;20209;-45
2022/03/03 00:47:17;;;;;;;22.23;19.50;;;2.90;67.80;;;;;;5117646;28;20188;-45
2022/03/03 00:49:42;;;;;;;23.13;19.87;;;2.90;67.80;;;;;;5117147;28;20181;-45
2022/03/03 00:52:08;;;;;;;22.30;19.13;;;2.80;67.80;;;;;;5117335;28;20374;-45
2022/03/03 00:54:34;;;;;;;25.90;19.40;;;2.80;67.90;;;;;;5117947;28;20241;-45
2022/03/03 00:56:59;;;;;;;25.10;19.03;;;2.70;67.90;;;;;;5118011;28;20246;-45
2022/03/03 00:59:25;;;;;;;23.80;18.90;;;2.70;68.00;;;;;;5118117;28;20204;-45
2022/03/03 01:01:51;;;;;;;23.30;19.60;;;2.60;67.90;;;;;;5118040;28;20196;-45
2022/03/03 01:04:16;;;;;;;25.23;19.07;;;2.60;68.00;;;;;;5117059;28;20263;-45
2022/03/03 01:06:42;;;;;;;24.90;20.10;;;2.50;67.90;;;;;;5117850;28;20267;-45
2022/03/03 01:09:08;;;;;;;24.97;19.60;;;2.50;67.90;;;;;;5116242;28;20493;-45
2022/03/03 01:11:33;;;;;;;22.70;19.30;;;2.50;67.90;;;;;;5117653;28;20188;-45
2022/03/03 01:13:59;;;;;;;24.17;19.70;;;2.40;67.90;;;;;;5116019;28;20515;-46
2022/03/03 01:16:25;;;;;;;24.97;19.70;;;2.40;67.90;;;;;;5117883;28;20188;-45
2022/03/03 01:18:50;;;;;;;27.90;20.07;;;2.40;68.10;;;;;;5117973;28;20208;-45
2022/03/03 01:21:16;;;;;;;24.30;17.87;;;2.40;68.00;;;;;;5117969;28;20195;-45
2022/03/03 01:23:42;;;;;;;27.03;18.47;;;2.30;68.10;;;;;;5117593;28;20555;-45
2022/03/03 01:26:07;;;;;;;25.40;19.60;;;2.30;68.40;;;;;;5116574;28;20188;-45
2022/03/03 01:28:33;;;;;;;28.87;19.40;;;2.30;69.30;;;;;;5117976;28;20188;-45
2022/03/03 01:30:59;;;;;;;24.10;18.87;;;2.30;68.60;;;;;;5117890;28;20452;-45
2022/03/03 01:33:25;;;;;;;24.17;18.90;;;2.20;68.70;;;;;;5116511;28;20231;-45
2022/03/03 01:35:50;;;;;;;30.47;20.40;;;2.10;68.70;;;;;;5118290;28;20187;-48
2022/03/03 01:38:16;;;;;;;26.80;19.63;;;2.10;68.80;;;;;;5115646;28;20215;-45
2022/03/03 01:40:42;;;;;;;24.80;19.60;;;2.10;68.90;;;;;;5117780;28;20181;-45
2022/03/03 01:43:07;;;;;;;24.73;20.33;;;2.10;68.80;;;;;;5117552;28;20585;-45
2022/03/03 01:45:33;;;;;;;27.30;20.40;;;2.10;68.90;;;;;;5117632;28;20176;-45
2022/03/03 01:48:00;;;;;;;28.00;20.83;;;2.10;69.10;;;;;;5117578;28;20188;-45
2022/03/03 01:50:25;;;;;;;23.80;19.03;;;2.10;69.20;;;;;;5116147;28;20225;-45
2022/03/03 01:52:51;;;;;;;24.60;20.33;;;2.00;69.30;;;;;;5120703;28;20417;-45
2022/03/03 01:55:17;;;;;;;28.47;20.37;;;2.00;69.50;;;;;;5119662;28;20222;-45
2022/03/03 01:57:43;;;;;;;25.80;20.50;;;2.00;69.60;;;;;;5120992;28;20216;-45
2022/03/03 02:00:10;;;;;;;25.33;20.10;;;2.00;69.70;;;;;;5120163;28;20426;-45
2022/03/03 02:02:35;;;;;;;26.10;20.73;;;1.90;69.80;;;;;;5121091;28;20434;-44
2022/03/03 02:05:01;;;;;;;28.10;19.67;;;1.90;69.80;;;;;;5119438;28;20917;-45
2022/03/03 02:07:27;;;;;;;27.23;19.97;;;1.80;69.80;;;;;;5120879;28;20180;-45
2022/03/03 02:09:52;;;;;;;29.07;20.93;;;1.80;70.70;;;;;;5120445;28;20555;-45
2022/03/03 02:12:18;;;;;;;27.60;20.00;;;1.80;70.20;;;;;;5119889;28;20475;-45
2022/03/03 02:14:46;;;;;;;24.70;19.40;;;1.80;70.40;;;;;;5120197;28;20212;-45
2022/03/03 02:17:12;;;;;;;27.13;21.30;;;1.80;70.80;;;;;;5120327;28;20458;-45
2022/03/03 02:19:38;;;;;;;25.10;20.43;;;1.80;71.20;;;;;;5120297;28;20490;-45
2022/03/03 02:22:04;;;;;;;24.20;20.93;;;1.80;71.50;;;;;;5120657;27;20681;-45
2022/03/03 02:24:30;;;;;;;28.87;21.03;;;1.80;71.70;;;;;;5120198;28;20426;-45
2022/03/03 02:26:56;;;;;;;24.93;19.97;;;1.80;71.60;;;;;;5120333;28;20850;-44
2022/03/03 02:29:38;;;;;;;25.57;20.30;;;1.80;71.70;;;;;;5117280;28;20574;-45
2022/03/03 02:32:05;;;;;;;25.70;19.60;;;1.80;71.70;;;;;;5120357;28;20466;-45
2022/03/03 02:34:31;;;;;;;24.80;20.40;;;1.80;71.90;;;;;;5120275;28;20456;-45
2022/03/03 02:36:57;;;;;;;25.93;21.57;;;1.70;72.10;;;;;;5119892;28;20403;-46
2022/03/03 02:39:22;;;;;;;26.70;20.73;;;1.70;72.10;;;;;;5120128;28;20495;-45
2022/03/03 02:41:48;;;;;;;25.93;21.57;;;1.70;72.30;;;;;;5120109;28;20267;-45
2022/03/03 02:44:14;;;;;;;25.77;19.00;;;1.70;72.50;;;;;;5119636;27;20184;-45
2022/03/03 02:46:40;;;;;;;26.97;20.80;;;1.60;72.30;;;;;;5119856;28;20465;-45
2022/03/03 02:49:06;;;;;;;27.47;18.83;;;1.60;72.30;;;;;;5119139;28;21010;-45
2022/03/03 02:51:32;;;;;;;29.73;21.90;;;1.60;72.10;;;;;;5119426;28;20186;-45
2022/03/03 02:53:57;;;;;;;25.20;20.17;;;1.60;72.10;;;;;;5119664;28;20501;-45
2022/03/03 02:56:23;;;;;;;23.23;20.37;;;1.60;72.00;;;;;;5117856;28;20538;-45
2022/03/03 02:58:49;;;;;;;24.40;20.13;;;1.60;71.90;;;;;;5119534;28;20185;-45
2022/03/03 03:01:15;;;;;;;23.70;20.17;;;1.60;72.00;;;;;;5117006;28;20836;-45
2022/03/03 03:03:41;;;;;;;26.83;20.90;;;1.60;72.00;;;;;;5117854;28;20199;-45
2022/03/03 03:06:06;;;;;;;26.87;21.17;;;1.60;71.80;;;;;;5119235;28;20402;-45
2022/03/03 03:08:33;;;;;;;28.90;20.40;;;1.60;72.00;;;;;;5117558;28;20266;-45
2022/03/03 03:10:59;;;;;;;25.30;20.00;;;1.50;72.00;;;;;;5119173;28;20184;-45
2022/03/03 03:13:25;;;;;;;27.20;19.40;;;1.50;72.80;;;;;;5118802;28;20476;-45
2022/03/03 03:15:51;;;;;;;25.10;18.10;;;1.50;72.10;;;;;;5119167;28;20418;-46
2022/03/03 03:18:21;;;;;;;24.07;19.70;;;1.50;72.00;;;;;;5128720;27;20187;-46
2022/03/03 03:20:50;;;;;;;23.93;18.93;;;1.40;71.90;;;;;;5139657;27;20409;-45
2022/03/03 03:23:18;;;;;;;22.97;18.70;;;1.40;71.90;;;;;;5139593;27;20397;-45
2022/03/03 03:25:44;;;;;;;26.97;19.10;;;1.40;72.00;;;;;;5138680;27;20410;-45
2022/03/03 03:28:11;;;;;;;21.30;17.83;;;1.40;72.10;;;;;;5139207;27;20463;-46
2022/03/03 03:30:37;;;;;;;25.20;17.70;;;1.30;72.00;;;;;;5139214;27;20230;-46
2022/03/03 03:33:03;;;;;;;24.77;19.60;;;1.30;72.10;;;;;;5138401;27;20805;-45
2022/03/03 03:35:29;;;;;;;25.60;19.53;;;1.30;72.10;;;;;;5139469;27;20432;-45
2022/03/03 03:37:55;;;;;;;22.50;18.33;;;1.30;72.00;;;;;;5139540;27;20417;-45
2022/03/03 03:40:21;;;;;;;25.97;19.10;;;1.30;72.00;;;;;;5139225;27;20515;-45
2022/03/03 03:42:47;;;;;;;24.30;19.80;;;1.30;72.00;;;;;;5139486;27;20421;-45
2022/03/03 03:45:13;;;;;;;24.27;19.30;;;1.20;72.10;;;;;;5139301;27;20207;-45
2022/03/03 03:47:39;;;;;;;22.80;18.50;;;1.20;72.00;;;;;;5139051;27;20803;-45
2022/03/03 03:50:08;;;;;;;23.83;20.33;;;1.20;72.00;;;;;;5139367;27;20417;-45
2022/03/03 03:52:37;;;;;;;25.03;18.40;;;1.20;72.10;;;;;;5137828;27;20433;-45
2022/03/03 03:55:05;;;;;;;24.37;20.20;;;1.20;72.20;;;;;;5138198;27;20815;-45
2022/03/03 03:57:31;;;;;;;25.73;20.43;;;1.20;72.30;;;;;;5138892;27;20711;-46
2022/03/03 03:59:57;;;;;;;24.90;20.10;;;1.10;72.00;;;;;;5139192;27;20861;-45
2022/03/03 04:02:23;;;;;;;23.20;19.90;;;1.10;72.10;;;;;;5138648;27;20405;-45
2022/03/03 04:04:48;;;;;;;28.13;20.13;;;1.00;72.10;;;;;;5139344;27;20440;-45
2022/03/03 04:07:14;;;;;;;21.03;17.73;;;1.00;72.10;;;;;;5138246;27;20270;-45
2022/03/03 04:09:40;;;;;;;24.10;18.00;;;1.00;72.00;;;;;;5138898;27;20191;-45
2022/03/03 04:12:06;;;;;;;23.37;18.90;;;1.00;72.00;;;;;;5137261;27;20188;-45
2022/03/03 04:14:32;;;;;;;23.10;18.83;;;1.00;72.00;;;;;;5138525;27;20179;-45
2022/03/03 04:16:57;;;;;;;23.87;18.70;;;1.10;72.00;;;;;;5138705;27;20821;-45
2022/03/03 04:19:23;;;;;;;24.90;19.93;;;1.00;72.00;;;;;;5138736;27;20187;-45
2022/03/03 04:21:49;;;;;;;27.83;19.37;;;1.00;71.80;;;;;;5139068;27;20187;-45
2022/03/03 04:24:15;;;;;;;27.53;20.10;;;1.00;72.10;;;;;;5138443;27;20532;-45
2022/03/03 04:26:41;;;;;;;24.90;19.60;;;1.00;72.20;;;;;;5138236;27;20203;-45
2022/03/03 04:29:06;;;;;;;24.60;20.00;;;1.00;72.40;;;;;;5138429;27;20478;-45
2022/03/03 04:31:32;;;;;;;25.47;20.53;;;1.00;72.50;;;;;;5138473;27;20287;-45
2022/03/03 04:33:58;;;;;;;22.50;18.57;;;1.00;72.60;;;;;;5136811;27;20194;-45
2022/03/03 04:36:24;;;;;;;23.53;19.20;;;0.90;72.60;;;;;;5138365;27;20195;-45
2022/03/03 04:38:50;;;;;;;22.30;17.93;;;0.90;72.70;;;;;;5138343;27;20183;-45
2022/03/03 04:41:19;;;;;;;28.87;19.10;;;0.80;73.50;;;;;;5138128;27;20496;-46
2022/03/03 04:43:44;;;;;;;36.73;18.60;;;0.80;72.80;;;;;;5138615;27;20437;-46
2022/03/03 04:46:10;;;;;;;26.10;19.50;;;0.90;72.90;;;;;;5119553;28;20421;-45
2022/03/03 04:48:36;;;;;;;22.30;17.57;;;0.90;72.70;;;;;;5136359;28;20306;-45
2022/03/03 04:51:02;;;;;;;25.77;18.73;;;0.80;72.60;;;;;;5137971;28;20201;-45
2022/03/03 04:53:29;;;;;;;25.87;19.93;;;0.80;72.60;;;;;;5138155;28;20417;-45
2022/03/03 04:55:55;;;;;;;22.77;19.80;;;0.80;72.60;;;;;;5136953;27;20510;-43
2022/03/03 04:58:20;;;;;;;25.77;19.33;;;0.80;72.60;;;;;;5134611;27;20823;-45
2022/03/03 05:00:46;;;;;;;24.50;20.20;;;0.80;72.70;;;;;;5136595;28;20418;-45
2022/03/03 05:03:12;;;;;;;23.27;19.33;;;0.80;72.70;;;;;;5135610;28;20203;-48
2022/03/03 05:05:38;;;;;;;23.47;19.00;;;0.70;72.60;;;;;;5136243;28;20409;-48
2022/03/03 05:08:04;;;;;;;23.17;18.10;;;0.80;72.90;;;;;;5134154;28;20211;-48
2022/03/03 05:10:29;;;;;;;22.77;19.60;;;0.70;73.00;;;;;;5135006;28;20585;-48
2022/03/03 05:12:55;;;;;;;28.03;18.53;;;0.70;73.10;;;;;;5135989;28;20416;-48
2022/03/03 05:15:21;;;;;;;24.13;20.10;;;0.70;73.10;;;;;;5135010;28;20180;-47
2022/03/03 05:17:47;;;;;;;22.57;18.20;;;0.80;73.30;;;;;;5137019;28;20192;-47
2022/03/03 05:20:13;;;;;;;21.07;17.47;;;0.80;73.20;;;;;;5135965;28;20184;-48
2022/03/03 05:22:39;;;;;;;24.37;19.60;;;0.80;73.10;;;;;;5134312;28;20460;-48
2022/03/03 05:25:05;;;;;;;26.00;19.73;;;0.80;73.10;;;;;;5130473;27;20432;-47
2022/03/03 05:27:33;;;;;;;23.73;18.73;;;0.80;73.10;;;;;;5135973;27;20525;-48
2022/03/03 05:29:59;;;;;;;25.57;20.67;;;0.70;72.90;;;;;;5133182;27;20440;-47
2022/03/03 05:32:24;;;;;;;24.83;19.60;;;0.70;72.90;;;;;;5135731;27;20473;-47
2022/03/03 05:34:50;;;;;;;23.87;19.87;;;0.70;72.70;;;;;;5136517;27;20493;-48
2022/03/03 05:37:22;;;;;;;30.30;21.20;;;0.70;72.60;;;;;;5137235;27;20592;-48
2022/03/03 05:39:48;;;;;;;28.50;21.20;;;0.70;72.50;;;;;;5139338;27;20187;-47
2022/03/03 05:42:14;;;;;;;22.77;18.20;;;0.70;72.50;;;;;;5139471;27;20440;-50
2022/03/03 05:44:42;;;;;;;27.73;22.40;;;0.70;72.50;;;;;;5121513;27;20428;-49
2022/03/03 05:47:08;;;;;;;25.90;19.03;;;0.70;72.50;;;;;;5138259;27;20493;-48
2022/03/03 05:49:34;;;;;;;24.13;19.27;;;0.70;72.50;;;;;;5139561;27;20545;-48
2022/03/03 05:51:59;;;;;;;30.50;21.93;;;0.60;72.40;;;;;;5103944;27;20796;-48
2022/03/03 05:54:25;;;;;;;23.03;19.80;;;0.60;72.60;;;;;;5120276;27;20519;-48
2022/03/03 05:56:53;;;;;;;25.03;19.90;;;0.60;72.80;;;;;;5140257;27;20270;-48
2022/03/03 05:59:22;;;;;;;26.17;19.97;;;0.50;72.70;;;;;;5139035;27;20195;-48
2022/03/03 06:01:49;;;;;;;24.47;20.00;;;0.60;72.90;;;;;;5139351;27;20417;-48
2022/03/03 06:04:15;;;;;;;24.30;20.40;;;0.60;72.80;;;;;;5135936;27;20580;-47
2022/03/03 06:07:05;;;;;;;26.70;19.90;;;0.50;72.70;;;;;;5138280;27;20431;-48
2022/03/03 06:09:33;;;;;;;25.07;20.27;;;0.50;72.90;;;;;;5138593;27;20580;-47
2022/03/03 06:12:18;;;;;;;24.87;19.73;;;0.60;73.20;;;;;;5122173;27;20413;-47
2022/03/03 06:14:51;;;;;;;23.80;19.47;;;0.50;73.20;;;;;;5138671;27;20489;-47
2022/03/03 06:17:19;;;;;;;27.33;21.30;;;0.60;73.90;;;;;;5133925;27;20418;-49
2022/03/03 06:19:46;;;;;;;27.53;20.87;;;0.60;73.70;;;;;;5117506;28;20460;-48
2022/03/03 06:22:11;;;;;;;28.73;21.73;;;0.60;73.80;;;;;;5117413;28;20463;-47
2022/03/03 06:24:37;;;;;;;29.97;21.97;;;0.70;74.10;;;;;;5098603;28;20918;-47
2022/03/03 06:27:04;;;;;;;27.17;21.10;;;0.70;74.10;;;;;;5117696;28;20192;-47
2022/03/03 06:29:34;;;;;;;29.23;21.10;;;0.70;74.10;;;;;;5119728;27;20212;-48
2022/03/03 06:32:01;;;;;;;26.97;20.10;;;0.70;74.00;;;;;;5126340;27;20980;-48
2022/03/03 06:34:27;;;;;;;27.73;21.30;;;0.80;74.10;;;;;;5121883;27;20475;-48
2022/03/03 06:36:54;;;;;;;27.27;20.70;;;0.90;74.10;;;;;;5120336;27;20461;-48
2022/03/03 06:39:20;;;;;;;28.10;20.07;;;1.00;73.80;;;;;;5121649;27;20433;-48
2022/03/03 06:41:46;;;;;;;26.30;19.80;;;1.10;73.50;;;;;;5116610;28;20250;-48
2022/03/03 06:44:14;;;;;;;25.70;19.23;;;1.20;73.30;;;;;;5118978;28;20409;-48
2022/03/03 06:46:40;;;;;;;23.90;19.63;;;1.40;73.10;;;;;;5116965;28;20184;-48
2022/03/03 06:49:06;;;;;;;26.00;20.23;;;1.50;72.90;;;;;;5136338;27;20465;-48
2022/03/03 06:51:58;;;;;;;26.73;21.33;;;1.60;72.60;;;;;;5135690;27;20486;-48
2022/03/03 06:54:24;;;;;;;24.30;20.40;;;1.80;72.50;;;;;;5134140;27;20566;-48
2022/03/03 06:56:57;;;;;;;24.90;19.90;;;1.90;72.00;;;;;;5136341;27;20466;-48
2022/03/03 06:59:33;;;;;;;25.33;21.17;;;2.10;72.00;;;;;;5137866;27;20425;-48
2022/03/03 07:02:00;;;;;;;25.00;19.17;;;2.30;72.50;;;;;;5136352;27;20454;-48
2022/03/03 07:04:28;;;;;;;24.50;20.40;;;2.50;71.70;;;;;;5137878;27;20685;-47
2022/03/03 07:06:54;;;;;;;25.60;20.60;;;2.70;71.50;;;;;;5135248;27;20425;-47
2022/03/03 07:09:20;;;;;;;25.37;19.60;;;2.80;71.60;;;;;;5136693;27;20468;-48
2022/03/03 07:11:47;;;;;;;25.87;19.50;;;3.00;71.40;;;;;;5135131;27;20459;-47
2022/03/03 07:14:13;;;;;;;25.17;20.20;;;3.30;71.40;;;;;;5138462;27;20280;-47
2022/03/03 07:16:59;;;;;;;22.80;20.40;;;3.50;71.20;;;;;;5138019;27;20701;-48
2022/03/03 07:19:36;;;;;;;23.67;20.57;;;3.80;71.00;;;;;;5118428;28;20418;-48
2022/03/03 07:22:24;;;;;;;26.73;20.97;;;4.10;70.40;;;;;;5117355;28;20429;-48
2022/03/03 07:25:02;;;;;;;25.13;21.17;;;4.40;69.80;;;;;;5118756;28;20870;-50
2022/03/03 07:27:28;;;;;;;26.27;21.00;;;4.70;68.10;;;;;;5117685;28;20827;-48
2022/03/03 07:30:04;;;;;;;24.67;20.57;;;4.90;66.40;;;;;;5117963;28;20410;-48
2022/03/03 07:32:38;;;;;;;26.83;20.17;;;5.20;65.90;;;;;;5118515;28;20254;-48
2022/03/03 07:35:05;;;;;;;25.00;19.93;;;5.50;64.70;;;;;;5115871;28;20421;-49
2022/03/03 07:37:42;;;;;;;25.20;22.60;;;5.80;63.80;;;;;;5115489;28;20417;-48
2022/03/03 07:40:09;;;;;;;29.20;22.00;;;6.20;63.10;;;;;;5115438;28;20830;-48
2022/03/03 07:42:36;;;;;;;28.47;21.43;;;6.40;62.50;;;;;;5116735;28;20418;-48
2022/03/03 07:45:07;;;;;;;28.10;22.30;;;6.70;61.80;;;;;;5097456;28;20420;-47
2022/03/03 07:47:33;;;;;;;28.60;22.63;;;7.00;60.70;;;;;;5115580;28;20574;-47
2022/03/03 07:49:59;;;;;;;29.20;24.07;;;7.30;60.20;;;;;;5113951;28;20445;-47
2022/03/03 07:52:26;;;;;;;27.87;23.60;;;7.50;59.60;;;;;;5113782;28;20750;-47
2022/03/03 07:54:52;;;;;;;27.87;23.87;;;7.80;59.10;;;;;;5115869;28;20180;-47
2022/03/03 07:57:21;;;;;;;32.50;23.07;;;8.10;58.40;;;;;;5113971;28;20426;-47
2022/03/03 07:59:49;;;;;;;25.17;22.47;;;8.30;57.40;;;;;;5116482;28;20418;-47
2022/03/03 08:02:24;;;;;;;25.83;23.13;;;8.60;56.90;;;;;;5113878;28;20972;-47
2022/03/03 08:04:51;;;;;;;28.73;24.37;;;9.00;56.10;;;;;;5116800;28;20476;-47
2022/03/03 08:07:18;;;;;;;31.57;24.50;;;9.30;55.50;;;;;;5115738;28;20456;-48
2022/03/03 08:09:47;;;;;;;29.10;22.90;;;9.60;54.60;;;;;;5116633;28;20542;-47
2022/03/03 08:12:14;;;;;;;37.37;26.70;;;9.90;53.40;;;;;;5113527;28;20429;-47
2022/03/03 08:14:40;;;;;;;32.80;29.27;;;10.20;51.70;;;;;;5113501;28;20414;-47
2022/03/03 08:17:07;;;;;;;31.40;26.80;;;10.60;51.10;;;;;;5111898;28;20422;-47
2022/03/03 08:19:33;;;;;;;31.53;25.83;;;11.00;50.40;;;;;;5096159;28;20589;-47
2022/03/03 08:21:59;;;;;;;27.17;24.27;;;11.30;49.20;;;;;;5112513;28;20430;-47
2022/03/03 08:24:26;;;;;;;28.30;23.27;;;11.60;47.90;;;;;;5115002;28;20585;-48
2022/03/03 08:26:54;;;;;;;17.97;16.17;;;12.00;48.50;;;;;;5112529;28;20437;-48
2022/03/03 08:29:20;;;;;;;17.90;14.57;;;12.60;52.80;;;;;;5113900;28;20470;-48
2022/03/03 08:31:49;;;;;;;17.80;13.07;;;13.20;55.90;;;;;;5114064;28;20745;-47
2022/03/03 08:34:23;;;;;;;14.87;13.07;;;13.80;57.00;;;;;;5098328;28;20184;-47
2022/03/03 08:36:56;;;;;;;20.23;18.03;;;14.50;56.50;;;;;;5113200;28;20819;-46
2022/03/03 08:39:28;;;;;;;21.23;18.63;;;15.00;51.80;;;;;;5094475;28;20414;-46
2022/03/03 08:41:59;;;;;;;22.30;20.00;;;15.50;47.90;;;;;;5078247;28;20439;-46
2022/03/03 08:44:28;;;;;;;23.07;20.77;;;15.80;43.80;;;;;;5112816;28;20453;-46
2022/03/03 08:46:57;;;;;;;22.70;20.40;;;16.00;41.20;;;;;;5111798;28;20512;-47
2022/03/03 08:49:36;;;;;;;24.23;21.73;;;16.10;40.30;;;;;;5111982;28;20462;-47
2022/03/03 08:52:04;;;;;;;23.67;21.20;;;16.40;39.00;;;;;;5096237;28;20426;-47
2022/03/03 08:54:29;;;;;;;23.33;20.93;;;16.70;38.10;;;;;;5111395;28;20414;-47
2022/03/03 08:56:55;;;;;;;25.20;22.40;;;17.10;36.80;;;;;;5109613;28;20429;-47
2022/03/03 08:59:21;;;;;;;22.13;19.93;;;17.40;35.80;;;;;;5109359;28;20196;-47
2022/03/03 09:01:47;;;;;;;22.30;19.97;;;17.90;35.30;;;;;;5114686;28;20413;-48
2022/03/03 09:04:13;;;;;;;22.47;20.27;;;18.40;34.80;;;;;;5098217;28;20193;-48
2022/03/03 09:06:38;;;;;;;21.80;19.50;;;18.80;33.90;;;;;;5118674;28;20434;-48
2022/03/03 09:09:04;;;;;;;23.80;21.40;;;19.20;32.90;;;;;;5097999;28;20227;-48
2022/03/03 09:11:30;;;;;;;23.13;20.80;;;19.60;32.40;;;;;;5118658;28;20191;-48
2022/03/03 09:13:56;;;;;;;22.00;19.63;;;20.10;31.70;;;;;;5115173;28;20243;-48
2022/03/03 09:16:22;;;;;;;24.17;21.57;;;20.40;31.10;;;;;;5117749;27;20197;-48
2022/03/03 09:18:48;;;;;;;21.80;19.77;;;20.90;30.40;;;;;;5118479;28;20203;-48
2022/03/03 09:21:15;;;;;;;24.20;22.00;;;21.30;30.20;;;;;;5118896;28;20420;-48
2022/03/03 09:23:41;;;;;;;24.23;21.93;;;21.70;29.40;;;;;;5116046;28;20870;-48
2022/03/03 09:26:07;;;;;;;23.37;21.23;;;22.10;29.00;;;;;;5117494;28;20475;-48
2022/03/03 09:28:33;;;;;;;22.03;19.97;;;22.40;28.70;;;;;;5119989;28;20466;-48
2022/03/03 09:30:59;;;;;;;24.07;21.80;;;22.80;28.50;;;;;;5120596;28;20598;-48
2022/03/03 09:33:26;;;;;;;23.03;20.67;;;23.10;28.00;;;;;;5117678;28;20472;-48
2022/03/03 09:35:52;;;;;;;21.80;19.73;;;23.50;27.80;;;;;;5117793;28;20785;-49
2022/03/03 09:38:18;;;;;;;24.40;22.00;;;23.80;27.60;;;;;;5116591;28;20416;-48
2022/03/03 09:40:44;;;;;;;25.47;22.93;;;24.20;27.50;;;;;;5118608;28;20675;-48
2022/03/03 09:43:11;;;;;;;23.07;20.87;;;24.60;27.20;;;;;;5117102;28;20187;-48
2022/03/03 09:45:38;;;;;;;22.57;20.40;;;24.90;26.70;;;;;;5118921;27;20418;-48
2022/03/03 09:48:09;;;;;;;23.33;20.83;;;25.30;26.40;;;;;;5115073;28;20726;-48
2022/03/03 09:50:41;;;;;;;23.40;21.10;;;25.60;26.00;;;;;;5117183;28;20416;-48
2022/03/03 09:53:19;;;;;;;24.77;22.23;;;26.10;26.00;;;;;;5116445;28;20494;-48
2022/03/03 09:55:46;;;;;;;25.47;23.17;;;26.50;25.60;;;;;;5118238;28;20422;-48
2022/03/03 09:58:13;;;;;;;25.37;22.87;;;26.80;25.20;;;;;;5117890;28;20503;-48
2022/03/03 10:00:40;;;;;;;23.20;21.20;;;27.10;25.10;;;;;;5118509;28;20555;-48
2022/03/03 10:03:13;;;;;;;23.00;20.90;;;27.50;24.50;;;;;;5117297;28;20701;-48
2022/03/03 10:05:47;;;;;;;23.10;20.87;;;27.80;24.00;;;;;;5119573;27;20540;-48
2022/03/03 10:08:20;;;;;;;25.00;22.60;;;28.00;23.70;;;;;;5118202;28;20466;-48
2022/03/03 10:10:49;;;;;;;26.87;24.27;;;28.30;23.60;;;;;;5119455;28;20441;-48
2022/03/03 10:13:16;;;;;;;25.53;23.13;;;28.60;23.50;;;;;;5114623;28;20414;-48
2022/03/03 10:15:44;;;;;;;25.70;23.40;;;28.70;23.20;;;;;;5117179;28;20418;-48
2022/03/03 10:18:12;;;;;;;24.57;22.27;;;29.10;23.00;;;;;;5115508;28;20468;-48
2022/03/03 10:20:57;;;;;;;23.60;21.57;;;29.40;22.80;;;;;;5116601;28;20417;-48
2022/03/03 10:23:34;;;;;;;24.33;22.10;;;29.80;22.60;;;;;;5113337;28;20506;-48
2022/03/03 10:26:04;;;;;;;24.03;21.73;;;30.10;22.30;;;;;;5116327;28;20432;-48
2022/03/03 10:28:35;;;;;;;25.67;23.20;;;30.20;22.30;;;;;;5113448;28;20438;-44
2022/03/03 10:31:06;;;;;;;24.13;21.97;;;30.40;22.20;;;;;;5116899;27;20597;-41
2022/03/03 10:33:37;;;;;;;23.93;21.80;;;30.60;22.00;;;;;;5114221;28;20476;-41
2022/03/03 10:36:08;;;;;;;25.40;23.13;;;31.00;21.80;;;;;;5114680;28;20708;-41
2022/03/03 10:38:59;;;;;;;22.00;20.10;;;31.00;21.50;;;;;;5114079;27;20896;-41
2022/03/03 10:41:37;;;;;;;22.00;19.93;;;31.30;21.40;;;;;;5114846;28;20414;-41
2022/03/03 10:44:17;;;;;;;26.20;23.60;;;31.50;21.20;;;;;;5113999;28;20415;-40
2022/03/03 10:47:07;;;;;;;24.67;22.50;;;31.90;21.40;;;;;;5114494;28;20426;-40
2022/03/03 10:49:35;;;;;;;25.10;22.93;;;32.50;21.40;;;;;;5115632;28;20732;-42
2022/03/03 10:52:15;;;;;;;25.30;23.30;;;32.50;21.60;;;;;;5114872;28;20403;-39
2022/03/03 10:54:56;;;;;;;27.00;24.40;;;32.90;21.80;;;;;;5112932;28;20815;-41
2022/03/03 10:57:40;;;;;;;26.80;24.43;;;33.20;22.00;;;;;;5112818;28;21316;-41
2022/03/03 11:00:11;;;;;;;25.97;23.77;;;33.30;22.00;;;;;;5116107;27;20476;-40
2022/03/03 11:02:41;;;;;;;26.33;24.10;;;33.60;22.00;;;;;;5114852;28;20788;-41
2022/03/03 11:05:09;;;;;;;26.47;24.20;;;34.10;22.00;;;;;;5117768;28;20415;-40
2022/03/03 11:07:35;;;;;;;26.13;23.80;;;34.30;21.70;;;;;;5114726;27;20645;-39
2022/03/03 11:10:03;;;;;;;25.33;23.23;;;34.50;21.60;;;;;;5115708;28;20663;-42
2022/03/03 11:12:29;;;;;;;25.73;23.53;;;34.60;21.60;;;;;;5115647;28;20404;-42
2022/03/03 11:14:56;;;;;;;19.43;17.80;;;35.10;21.50;;;;;;5116386;28;20396;-41
2022/03/03 11:17:22;;;;;;;11.90;11.00;;;35.20;22.90;;;;;;5115957;28;21438;-43
2022/03/03 11:19:51;;;;;;;14.23;13.03;;;34.80;25.50;;;;;;5117391;28;20919;-42
2022/03/03 11:22:17;;;;;;;14.73;13.47;;;35.00;25.10;;;;;;5115447;28;20395;-43
2022/03/03 11:24:44;;;;;;;14.47;13.07;;;35.10;24.90;;;;;;5114976;28;20475;-42
2022/03/03 11:27:10;;;;;;;12.40;11.50;;;35.00;24.90;;;;;;5116134;28;20419;-43
2022/03/03 11:29:38;;;;;;;16.20;14.80;;;35.00;25.30;;;;;;5116752;28;20630;-42
2022/03/03 11:32:05;;;;;;;17.03;15.53;;;34.90;24.80;;;;;;5115961;28;20220;-40
2022/03/03 11:34:32;;;;;;;18.60;17.03;;;34.90;24.90;;;;;;5115061;28;20453;-40
2022/03/03 11:37:29;;;;;;;15.87;14.57;;;35.00;24.40;;;;;;5123640;27;20398;-40
2022/03/03 11:39:57;;;;;;;16.00;14.60;;;35.10;24.80;;;;;;5136094;27;20524;-41
2022/03/03 11:42:53;;;;;;;15.60;14.47;;;35.20;24.80;;;;;;5136448;27;20386;-42
2022/03/03 11:45:27;;;;;;;16.80;15.40;;;35.20;24.30;;;;;;5133668;27;20428;-40
2022/03/03 11:48:12;;;;;;;19.17;17.67;;;35.30;24.60;;;;;;5135647;27;20475;-40
2022/03/03 11:50:38;;;;;;;17.87;16.50;;;35.20;24.30;;;;;;5134547;27;20571;-41
2022/03/03 11:53:14;;;;;;;16.57;15.00;;;35.30;24.40;;;;;;5129420;27;20508;-40
2022/03/03 11:55:49;;;;;;;18.37;16.80;;;35.30;24.60;;;;;;5130092;27;20426;-41
2022/03/03 11:58:21;;;;;;;19.60;18.10;;;35.40;24.30;;;;;;5132138;27;20433;-41
2022/03/03 12:00:58;;;;;;;19.10;17.40;;;35.20;23.90;;;;;;5134373;27;20393;-41
2022/03/03 12:03:25;;;;;;;17.43;15.83;;;35.20;23.80;;;;;;5130994;27;20517;-41
2022/03/03 12:06:09;;;;;;;17.97;16.37;;;34.90;24.00;;;;;;5135786;27;20420;-45
2022/03/03 12:08:43;;;;;;;17.67;16.23;;;35.10;24.40;;;;;;5135021;27;20840;-41
2022/03/03 12:11:15;;;;;;;16.87;15.57;;;35.30;24.20;;;;;;5136928;27;20490;-42
2022/03/03 12:13:48;;;;;;;18.03;16.63;;;35.40;24.20;;;;;;5136180;27;20407;-40
2022/03/03 12:16:20;;;;;;;19.03;17.40;;;35.50;24.20;;;;;;5133108;27;20550;-40
2022/03/03 12:18:46;;;;;;;16.73;15.43;;;35.70;24.00;;;;;;5135813;27;20440;-41
2022/03/03 12:21:32;;;;;;;17.87;16.37;;;35.70;24.00;;;;;;5132337;27;20438;-44
2022/03/03 12:24:17;;;;;;;18.70;17.10;;;35.80;24.00;;;;;;5136780;27;20273;-42
2022/03/03 12:29:28;;;;;;;19.03;17.47;;;35.80;23.90;;;;;;5137537;27;20862;-44
2022/03/03 12:31:54;;;;;;;17.20;15.80;;;35.80;23.00;;;;;;5134783;27;20442;-42
2022/03/03 12:34:20;;;;;;;19.77;18.23;;;36.00;23.60;;;;;;5134562;27;20750;-41
2022/03/03 12:36:46;;;;;;;21.20;19.40;;;36.10;23.50;;;;;;5131037;27;20201;-44
2022/03/03 12:39:13;;;;;;;19.40;17.90;;;36.00;23.00;;;;;;5116594;28;20468;-43
2022/03/03 12:41:40;;;;;;;19.37;17.77;;;36.00;23.10;;;;;;5112719;28;20432;-42